createdAt,value
2023-04-19T00:01:30.427Z,7.13
2023-04-19T00:03:58.845Z,7.45
2023-04-19T00:06:30.581Z,7.85
2023-04-19T00:08:58.840Z,7.88
2023-04-19T00:11:27.059Z,7.88
2023-04-19T00:13:56.588Z,5.70
2023-04-19T00:16:24.893Z,8.43
2023-04-19T00:18:53.138Z,7.72
2023-04-19T00:21:21.284Z,6.13
2023-04-19T00:23:49.561Z,6.15
2023-04-19T00:26:17.769Z,7.05
2023-04-19T00:28:50.873Z,7.47
2023-04-19T00:31:20.508Z,8.18
2023-04-19T00:33:48.815Z,6.60
2023-04-19T00:36:16.984Z,8.48
2023-04-19T00:38:47.820Z,7.18
2023-04-19T00:41:18.119Z,8.25
2023-04-19T00:43:46.336Z,8.32
2023-04-19T00:46:16.163Z,9.40
2023-04-19T00:48:46.366Z,7.07
2023-04-19T00:51:14.804Z,7.45
2023-04-19T00:53:43.135Z,7.20
2023-04-19T00:56:12.769Z,7.68
2023-04-19T00:58:41.014Z,7.97
2023-04-19T01:01:10.904Z,7.68
2023-04-19T01:03:39.360Z,10.63
2023-04-19T01:06:09.267Z,9.50
2023-04-19T01:08:37.485Z,11.30
2023-04-19T01:11:05.801Z,9.60
2023-04-19T01:13:34.259Z,8.88
2023-04-19T01:16:02.695Z,9.55
2023-04-19T01:18:37.406Z,8.95
2023-04-19T01:21:06.954Z,8.75
2023-04-19T01:23:36.911Z,11.32
2023-04-19T01:26:05.123Z,9.40
2023-04-19T01:28:33.797Z,12.82
2023-04-19T01:31:02.013Z,10.30
2023-04-19T01:33:30.317Z,12.20
2023-04-19T01:35:58.551Z,10.85
2023-04-19T01:38:26.799Z,12.25
2023-04-19T01:40:57.416Z,13.30
2023-04-19T01:43:26.249Z,12.75
2023-04-19T01:45:54.502Z,12.90
2023-04-19T01:48:22.705Z,13.48
2023-04-19T01:50:50.953Z,12.85
2023-04-19T01:53:19.273Z,11.25
2023-04-19T01:55:47.475Z,12.30
2023-04-19T01:58:17.028Z,12.45
2023-04-19T02:00:46.486Z,13.60
2023-04-19T02:03:14.965Z,12.60
2023-04-19T02:05:44.220Z,14.52
2023-04-19T02:08:12.429Z,13.57
2023-04-19T02:10:40.606Z,12.70
2023-04-19T02:13:08.880Z,18.75
2023-04-19T02:15:39.612Z,17.25
2023-04-19T02:18:08.308Z,15.20
2023-04-19T02:20:36.588Z,16.05
2023-04-19T02:23:05.340Z,16.30
2023-04-19T02:25:33.589Z,14.35
2023-04-19T02:28:01.814Z,16.20
2023-04-19T02:30:30.044Z,14.70
2023-04-19T02:32:59.899Z,15.40
2023-04-19T02:35:28.571Z,17.75
2023-04-19T02:38:00.204Z,15.65
2023-04-19T02:40:28.394Z,16.40
2023-04-19T02:42:56.611Z,16.05
2023-04-19T02:45:24.919Z,16.05
2023-04-19T02:47:56.335Z,18.63
2023-04-19T02:50:28.318Z,20.08
2023-04-19T02:52:56.752Z,17.27
2023-04-19T02:55:26.745Z,16.05
2023-04-19T02:58:05.095Z,18.48
2023-04-19T03:00:36.813Z,15.52
2023-04-19T03:03:10.750Z,17.42
2023-04-19T03:05:40.391Z,18.73
2023-04-19T03:08:10.887Z,15.57
2023-04-19T03:10:39.187Z,16.60
2023-04-19T03:13:07.430Z,17.00
2023-04-19T03:19:42.223Z,19.77
2023-04-19T03:22:12.179Z,17.73
2023-04-19T03:24:42.133Z,17.48
2023-04-19T03:27:22.354Z,17.45
2023-04-19T03:29:56.972Z,18.50
2023-04-19T03:32:25.672Z,19.02
2023-04-19T03:34:54.352Z,18.00
2023-04-19T03:37:24.034Z,21.42
2023-04-19T03:39:53.080Z,19.80
2023-04-19T03:42:29.114Z,15.10
2023-04-19T03:45:24.579Z,18.65
2023-04-19T03:47:52.966Z,19.15
2023-04-19T03:50:21.861Z,19.42
2023-04-19T03:52:54.902Z,17.88
2023-04-19T03:55:23.164Z,21.00
2023-04-19T03:57:51.971Z,17.67
2023-04-19T04:00:46.163Z,20.13
2023-04-19T04:03:15.962Z,20.75
2023-04-19T04:05:44.599Z,20.30
2023-04-19T04:08:14.916Z,18.88
2023-04-19T04:10:43.301Z,21.42
2023-04-19T04:13:11.548Z,21.58
2023-04-19T04:15:47.245Z,21.23
2023-04-19T04:18:18.124Z,22.23
2023-04-19T04:20:46.883Z,26.90
2023-04-19T04:23:16.635Z,25.27
2023-04-19T04:25:58.089Z,33.75
2023-04-19T04:28:28.871Z,31.23
2023-04-19T04:30:58.155Z,25.88
2023-04-19T04:33:28.198Z,20.60
2023-04-19T04:35:57.950Z,19.30
2023-04-19T04:38:31.359Z,18.95
2023-04-19T04:40:59.842Z,17.45
2023-04-19T04:43:29.306Z,18.88
2023-04-19T04:45:59.519Z,20.80
2023-04-19T04:48:34.392Z,18.55
2023-04-19T04:51:03.305Z,19.90
2023-04-19T04:53:32.959Z,20.42
2023-04-19T04:56:04.233Z,21.38
2023-04-19T04:58:33.108Z,19.25
2023-04-19T05:01:10.062Z,17.90
2023-04-19T05:03:41.438Z,22.73
2023-04-19T05:06:14.668Z,20.13
2023-04-19T05:08:45.177Z,20.25
2023-04-19T05:11:22.063Z,24.00
2023-04-19T05:13:50.348Z,21.98
2023-04-19T05:16:18.677Z,21.55
2023-04-19T05:18:49.025Z,20.85
2023-04-19T05:21:17.468Z,19.00
2023-04-19T05:23:47.261Z,25.80
2023-04-19T05:26:16.612Z,18.95
2023-04-19T05:28:46.176Z,21.85
2023-04-19T05:31:26.598Z,19.15
2023-04-19T05:34:10.630Z,19.95
2023-04-19T05:36:38.961Z,20.30
2023-04-19T05:39:09.620Z,18.08
2023-04-19T05:41:38.020Z,20.38
2023-04-19T05:44:07.339Z,20.77
2023-04-19T05:46:36.323Z,22.83
2023-04-19T05:49:05.505Z,22.33
2023-04-19T05:51:52.098Z,22.25
2023-04-19T05:54:40.164Z,20.38
2023-04-19T05:57:08.532Z,21.95
2023-04-19T05:59:36.883Z,22.40
2023-04-19T06:02:05.633Z,22.42
2023-04-19T06:04:34.382Z,21.08
2023-04-19T06:07:04.562Z,23.50
2023-04-19T06:09:34.463Z,21.85
2023-04-19T06:12:04.227Z,21.10
2023-04-19T06:14:32.528Z,20.63
2023-04-19T06:17:00.929Z,19.42
2023-04-19T06:19:29.050Z,23.00
2023-04-19T06:21:57.242Z,19.55
2023-04-19T06:24:25.401Z,16.00
2023-04-19T06:26:53.600Z,18.20
2023-04-19T06:29:24.279Z,16.10
2023-04-19T06:31:52.953Z,18.63
2023-04-19T06:34:21.248Z,16.33
2023-04-19T06:36:49.401Z,20.05
2023-04-19T06:39:17.983Z,16.83
2023-04-19T06:41:46.211Z,17.08
2023-04-19T06:44:18.319Z,12.43
2023-04-19T06:46:53.525Z,13.63
2023-04-19T06:49:22.781Z,12.77
2023-04-19T06:51:51.079Z,15.73
2023-04-19T06:54:19.548Z,13.50
2023-04-19T06:56:49.876Z,13.70
2023-04-19T06:59:19.861Z,16.13
2023-04-19T07:01:49.741Z,13.57
2023-04-19T07:04:19.156Z,15.27
2023-04-19T07:06:50.401Z,13.75
2023-04-19T07:09:18.700Z,12.70
2023-04-19T07:11:47.923Z,15.45
2023-04-19T07:14:16.900Z,16.30
2023-04-19T07:16:45.206Z,13.75
2023-04-19T07:19:15.121Z,14.45
2023-04-19T07:21:43.510Z,14.40
2023-04-19T07:24:11.736Z,16.40
2023-04-19T07:26:40.024Z,12.52
2023-04-19T07:29:08.633Z,13.15
2023-04-19T07:31:37.137Z,14.48
2023-04-19T07:34:05.397Z,13.63
2023-04-19T07:36:35.561Z,14.60
2023-04-19T07:39:04.851Z,14.77
2023-04-19T07:41:33.875Z,12.93
2023-04-19T07:44:03.227Z,11.95
2023-04-19T07:46:31.524Z,14.45
2023-04-19T07:48:59.832Z,10.90
2023-04-19T07:51:28.057Z,13.25
2023-04-19T07:53:57.625Z,12.02
2023-04-19T07:56:26.869Z,13.15
2023-04-19T07:59:07.802Z,10.05
2023-04-19T08:01:37.773Z,11.40
2023-04-19T08:04:06.666Z,10.23
2023-04-19T08:06:35.286Z,10.30
2023-04-19T08:09:05.213Z,12.68
2023-04-19T08:11:33.467Z,12.07
2023-04-19T08:14:09.396Z,9.65
2023-04-19T08:19:23.134Z,11.90
2023-04-19T08:21:51.409Z,14.45
2023-04-19T08:24:22.242Z,8.13
2023-04-19T08:26:53.926Z,8.75
2023-04-19T08:29:23.266Z,9.00
2023-04-19T08:31:51.536Z,8.30
2023-04-19T08:34:19.743Z,8.95
2023-04-19T08:36:59.880Z,9.25
2023-04-19T08:39:34.585Z,8.85
2023-04-19T08:42:11.068Z,8.00
2023-04-19T08:47:30.220Z,8.15
2023-04-19T08:52:47.903Z,7.63
2023-04-19T08:55:24.545Z,7.70
2023-04-19T08:57:52.938Z,10.18
2023-04-19T09:00:22.533Z,7.13
2023-04-19T09:02:52.960Z,8.43
2023-04-19T09:05:22.084Z,8.35
2023-04-19T09:07:50.443Z,8.32
2023-04-19T09:10:19.925Z,9.52
2023-04-19T09:13:03.563Z,10.93
2023-04-19T09:15:44.712Z,8.18
2023-04-19T09:18:14.245Z,7.22
2023-04-19T09:20:45.037Z,11.13
2023-04-19T09:23:16.505Z,7.70
2023-04-19T09:26:19.422Z,8.45
2023-04-19T09:28:57.619Z,8.38
2023-04-19T09:31:43.371Z,7.78
2023-04-19T09:34:18.769Z,7.78
2023-04-19T09:36:48.930Z,8.07
2023-04-19T09:39:32.512Z,8.13
2023-04-19T09:42:01.918Z,9.02
2023-04-19T09:45:02.206Z,9.63
2023-04-19T09:47:25.710Z,8.05
2023-04-19T09:52:41.855Z,9.52
2023-04-19T09:55:22.162Z,8.52
2023-04-19T09:57:55.170Z,8.10
2023-04-19T10:00:25.581Z,6.60
2023-04-19T10:02:58.452Z,7.47
2023-04-19T10:05:27.445Z,9.43
2023-04-19T10:08:00.085Z,9.98
2023-04-19T10:13:16.010Z,9.38
2023-04-19T10:15:53.835Z,8.98
2023-04-19T10:18:24.144Z,10.85
2023-04-19T10:20:58.286Z,8.07
2023-04-19T10:23:26.643Z,8.10
2023-04-19T10:25:58.514Z,10.07
2023-04-19T10:28:29.249Z,7.35
2023-04-19T10:31:02.568Z,9.10
2023-04-19T10:33:32.263Z,9.73
2023-04-19T10:36:01.574Z,8.80
2023-04-19T10:38:41.526Z,7.95
2023-04-19T10:41:16.859Z,9.05
2023-04-19T10:43:48.068Z,7.07
2023-04-19T10:46:41.196Z,9.63
2023-04-19T10:49:09.928Z,7.50
2023-04-19T10:51:39.849Z,7.97
2023-04-19T10:54:08.878Z,8.10
2023-04-19T10:57:00.592Z,7.25
2023-04-19T10:59:30.622Z,8.38
2023-04-19T11:02:02.149Z,6.80
2023-04-19T11:05:11.576Z,7.57
2023-04-19T11:07:41.894Z,6.43
2023-04-19T11:10:11.752Z,7.35
2023-04-19T11:12:44.309Z,8.63
2023-04-19T11:15:12.527Z,7.07
2023-04-19T11:17:42.772Z,6.28
2023-04-19T11:20:12.210Z,8.80
2023-04-19T11:22:42.233Z,7.07
2023-04-19T11:25:12.587Z,6.07
2023-04-19T11:27:41.675Z,7.00
2023-04-19T11:30:12.495Z,5.65
2023-04-19T11:32:47.453Z,5.95
2023-04-19T11:35:16.451Z,5.30
2023-04-19T11:37:44.725Z,6.82
2023-04-19T11:40:17.275Z,6.75
2023-04-19T11:42:45.871Z,6.90
2023-04-19T11:45:30.461Z,7.10
2023-04-19T11:48:02.522Z,6.05
2023-04-19T11:50:38.817Z,8.65
2023-04-19T11:53:18.373Z,5.20
2023-04-19T11:55:48.296Z,4.90
2023-04-19T11:58:32.309Z,5.10
2023-04-19T12:01:07.433Z,6.10
2023-04-19T12:03:42.673Z,6.55
2023-04-19T12:06:13.645Z,5.15
2023-04-19T12:08:47.220Z,4.85
2023-04-19T12:11:16.374Z,5.10
2023-04-19T12:13:45.310Z,5.72
2023-04-19T12:16:14.484Z,5.28
2023-04-19T12:18:50.037Z,8.90
2023-04-19T12:21:28.424Z,6.32
2023-04-19T12:23:58.226Z,5.00
2023-04-19T12:26:28.401Z,10.10
2023-04-19T12:28:57.227Z,6.10
2023-04-19T12:31:25.974Z,6.90
2023-04-19T12:33:55.721Z,5.53
2023-04-19T12:36:23.997Z,8.80
2023-04-19T12:38:52.428Z,6.18
2023-04-19T12:41:21.214Z,5.90
2023-04-19T12:43:49.452Z,4.80
2023-04-19T12:46:17.700Z,6.43
2023-04-19T12:48:46.248Z,6.07
2023-04-19T12:51:15.823Z,5.30
2023-04-19T12:53:49.103Z,5.70
2023-04-19T12:56:17.471Z,7.43
2023-04-19T12:58:46.027Z,5.30
2023-04-19T13:01:14.295Z,5.10
2023-04-19T13:03:42.622Z,7.10
2023-04-19T13:06:14.856Z,6.57
2023-04-19T13:08:47.486Z,5.78
2023-04-19T13:11:22.959Z,6.28
2023-04-19T13:13:52.960Z,6.82
2023-04-19T13:16:21.446Z,5.90
2023-04-19T13:18:51.171Z,5.03
2023-04-19T13:21:19.500Z,6.78
2023-04-19T13:23:49.078Z,8.02
2023-04-19T13:26:17.588Z,7.60
2023-04-19T13:28:45.907Z,7.47
2023-04-19T13:31:14.305Z,6.75
2023-04-19T13:33:42.529Z,10.05
2023-04-19T13:36:14.407Z,10.25
2023-04-19T13:38:42.613Z,6.60
2023-04-19T13:41:12.794Z,7.63
2023-04-19T13:43:41.200Z,10.20
2023-04-19T13:46:09.497Z,7.22
2023-04-19T13:48:37.874Z,6.82
2023-04-19T13:51:07.208Z,8.25
2023-04-19T13:53:35.479Z,6.40
2023-04-19T13:56:03.786Z,7.78
2023-04-19T13:58:35.228Z,6.28
2023-04-19T14:01:03.501Z,8.20
2023-04-19T14:03:32.921Z,6.50
2023-04-19T14:06:01.270Z,7.72
2023-04-19T14:08:29.600Z,9.35
2023-04-19T14:10:57.861Z,7.70
2023-04-19T14:13:26.122Z,8.15
2023-04-19T14:15:55.755Z,6.40
2023-04-19T14:18:24.030Z,7.22
2023-04-19T14:20:52.461Z,7.53
2023-04-19T14:23:20.795Z,11.13
2023-04-19T14:25:49.513Z,8.13
2023-04-19T14:28:18.196Z,6.90
2023-04-19T14:30:46.428Z,8.07
2023-04-19T14:33:16.072Z,7.88
2023-04-19T14:35:44.469Z,7.03
2023-04-19T14:38:12.827Z,7.55
2023-04-19T14:40:41.168Z,6.18
2023-04-19T14:43:09.374Z,7.78
2023-04-19T14:45:37.650Z,7.38
2023-04-19T14:48:06.385Z,9.13
2023-04-19T14:50:36.158Z,8.90
2023-04-19T14:53:04.378Z,7.03
2023-04-19T14:55:32.598Z,9.80
2023-04-19T14:58:00.807Z,9.57
2023-04-19T15:00:29.092Z,8.60
2023-04-19T15:02:57.709Z,7.10
2023-04-19T15:05:28.548Z,8.00
2023-04-19T15:07:58.325Z,6.70
2023-04-19T15:10:26.512Z,6.53
2023-04-19T15:12:54.811Z,7.65
2023-04-19T15:15:22.998Z,9.63
2023-04-19T15:17:54.314Z,8.45
2023-04-19T15:20:22.623Z,7.95
2023-04-19T15:22:50.872Z,8.07
2023-04-19T15:25:20.484Z,7.70
2023-04-19T15:27:48.821Z,7.70
2023-04-19T15:30:17.030Z,7.43
2023-04-19T15:32:45.992Z,11.00
2023-04-19T15:35:14.468Z,10.43
2023-04-19T15:37:44.059Z,8.65
2023-04-19T15:40:14.485Z,8.60
2023-04-19T15:42:44.239Z,8.07
2023-04-19T15:45:12.631Z,10.75
2023-04-19T15:47:41.009Z,10.07
2023-04-19T15:50:09.785Z,12.90
2023-04-19T15:52:38.172Z,14.25
2023-04-19T15:55:07.039Z,13.43
2023-04-19T15:57:35.387Z,13.18
2023-04-19T16:00:09.355Z,13.65
2023-04-19T16:02:40.911Z,17.80
2023-04-19T16:05:09.942Z,15.68
2023-04-19T16:07:38.245Z,14.05
2023-04-19T16:10:07.472Z,15.10
2023-04-19T16:12:35.857Z,14.35
2023-04-19T16:15:06.185Z,18.88
2023-04-19T16:17:34.483Z,19.52
2023-04-19T16:20:03.235Z,19.88
2023-04-19T16:22:33.009Z,22.33
2023-04-19T16:25:01.248Z,21.90
2023-04-19T16:27:29.573Z,25.25
2023-04-19T16:29:57.898Z,25.75
2023-04-19T16:32:27.660Z,24.45
2023-04-19T16:34:55.899Z,26.75
2023-04-19T16:37:24.085Z,29.73
2023-04-19T16:39:52.277Z,32.17
2023-04-19T16:42:20.553Z,30.45
2023-04-19T16:44:48.902Z,32.40
2023-04-19T16:47:17.159Z,32.95
2023-04-19T16:49:47.937Z,30.10
2023-04-19T16:52:16.286Z,27.75
2023-04-19T16:54:44.860Z,28.48
2023-04-19T16:57:13.174Z,30.02
2023-04-19T16:59:41.449Z,28.05
2023-04-19T17:02:11.091Z,27.90
2023-04-19T17:04:39.931Z,25.13
2023-04-19T17:07:09.784Z,27.88
2023-04-19T17:09:38.155Z,29.95
2023-04-19T17:12:07.486Z,33.35
2023-04-19T17:14:36.756Z,35.20
2023-04-19T17:17:04.963Z,36.50
2023-04-19T17:19:33.268Z,50.00
2023-04-19T17:22:05.424Z,48.88
2023-04-19T17:24:35.582Z,50.42
2023-04-19T17:27:03.923Z,51.20
2023-04-19T17:29:32.588Z,51.10
2023-04-19T17:32:01.442Z,47.03
2023-04-19T17:34:29.750Z,47.25
2023-04-19T17:36:59.500Z,50.58
2023-04-19T17:39:28.997Z,44.75
2023-04-19T17:41:58.675Z,42.15
2023-04-19T17:44:27.023Z,41.55
2023-04-19T17:46:55.271Z,33.25
2023-04-19T17:49:23.473Z,41.95
2023-04-19T17:51:53.199Z,38.92
2023-04-19T17:54:21.416Z,40.35
2023-04-19T17:56:49.630Z,37.63
2023-04-19T17:59:19.454Z,40.58
2023-04-19T18:01:47.791Z,43.38
2023-04-19T18:04:18.214Z,41.78
2023-04-19T18:06:46.964Z,41.40
2023-04-19T18:09:15.539Z,40.28
2023-04-19T18:11:43.958Z,43.00
2023-04-19T18:14:12.554Z,45.17
2023-04-19T18:16:44.115Z,38.55
2023-04-19T18:19:12.442Z,40.72
2023-04-19T18:21:40.712Z,44.20
2023-04-19T18:24:09.206Z,43.60
2023-04-19T18:26:39.279Z,42.25
2023-04-19T18:29:07.681Z,39.80
2023-04-19T18:31:36.047Z,41.08
2023-04-19T18:34:05.896Z,37.13
2023-04-19T18:36:34.206Z,34.88
2023-04-19T18:39:02.408Z,34.70
2023-04-19T18:41:30.749Z,33.10
2023-04-19T18:44:30.055Z,36.72
2023-04-19T18:46:47.435Z,27.42
2023-04-19T18:49:17.411Z,32.55
2023-04-19T18:51:45.894Z,31.05
2023-04-19T18:54:14.302Z,30.52
2023-04-19T18:57:14.794Z,27.42
2023-04-19T18:59:31.053Z,21.25
2023-04-19T19:01:59.327Z,23.05
2023-04-19T19:04:48.213Z,22.98
2023-04-19T19:07:34.337Z,19.52
2023-04-19T19:10:17.265Z,21.45
2023-04-19T19:12:49.238Z,18.27
2023-04-19T19:15:17.950Z,18.25
2023-04-19T19:17:49.773Z,17.77
2023-04-19T19:20:20.782Z,18.95
2023-04-19T19:22:49.305Z,17.58
2023-04-19T19:25:17.664Z,15.90
2023-04-19T19:28:02.756Z,16.98
2023-04-19T19:30:34.781Z,15.18
2023-04-19T19:33:05.048Z,16.02
2023-04-19T19:35:34.982Z,13.50
2023-04-19T19:38:07.384Z,14.95
2023-04-19T19:40:40.861Z,14.30
2023-04-19T19:43:24.514Z,15.52
2023-04-19T19:45:53.450Z,22.02
2023-04-19T19:48:22.368Z,15.35
2023-04-19T19:53:23.214Z,15.55
2023-04-19T19:55:51.537Z,15.30
2023-04-19T19:58:45.892Z,15.55
2023-04-19T20:01:08.131Z,17.48
2023-04-19T20:03:38.097Z,17.70
2023-04-19T20:08:44.338Z,14.88
2023-04-19T20:11:13.262Z,16.77
2023-04-19T20:13:41.559Z,15.35
2023-04-19T20:16:10.155Z,16.58
2023-04-19T20:18:39.222Z,17.95
2023-04-19T20:21:09.687Z,16.75
2023-04-19T20:23:39.667Z,17.40
2023-04-19T20:26:07.924Z,26.02
2023-04-19T20:28:36.500Z,26.05
2023-04-19T20:31:04.766Z,30.52
2023-04-19T20:33:33.028Z,30.50
2023-04-19T20:36:01.946Z,27.05
2023-04-19T20:38:34.599Z,25.60
2023-04-19T20:41:03.185Z,23.17
2023-04-19T20:43:31.754Z,24.48
2023-04-19T20:46:00.304Z,25.95
2023-04-19T20:48:28.554Z,31.25
2023-04-19T20:50:56.829Z,27.23
2023-04-19T20:53:25.082Z,35.42
2023-04-19T20:55:54.880Z,35.58
2023-04-19T20:58:23.189Z,33.85
2023-04-19T21:00:51.415Z,35.75
2023-04-19T21:03:19.785Z,32.08
2023-04-19T21:05:48.273Z,32.15
2023-04-19T21:08:18.409Z,35.42
2023-04-19T21:10:46.614Z,35.85
2023-04-19T21:13:16.263Z,35.38
2023-04-19T21:15:44.444Z,32.90
2023-04-19T21:18:12.723Z,32.00
2023-04-19T21:20:40.918Z,39.97
2023-04-19T21:23:09.227Z,34.35
2023-04-19T21:25:37.433Z,30.13
2023-04-19T21:28:05.700Z,29.40
2023-04-19T21:30:38.714Z,28.38
2023-04-19T21:33:07.027Z,25.33
2023-04-19T21:35:35.909Z,27.80
2023-04-19T21:38:04.483Z,27.02
2023-04-19T21:40:32.826Z,25.65
2023-04-19T21:43:01.069Z,25.33
2023-04-19T21:45:29.402Z,22.25
2023-04-19T21:47:59.142Z,22.52
2023-04-19T21:50:27.405Z,21.77
2023-04-19T21:52:55.784Z,25.33
2023-04-19T21:55:27.172Z,23.17
2023-04-19T21:57:55.375Z,24.55
2023-04-19T22:00:24.269Z,24.58
2023-04-19T22:02:52.592Z,20.83
2023-04-19T22:05:22.405Z,23.17
2023-04-19T22:07:50.621Z,22.95
2023-04-19T22:10:18.924Z,23.27
2023-04-19T22:12:57.869Z,24.40
2023-04-19T22:15:28.120Z,20.65
2023-04-19T22:17:57.503Z,25.73
2023-04-19T22:20:27.958Z,25.73
2023-04-19T22:22:56.395Z,27.15
2023-04-19T22:25:24.582Z,22.58
2023-04-19T22:27:52.918Z,25.27
2023-04-19T22:30:21.275Z,24.23
2023-04-19T22:32:49.742Z,24.33
2023-04-19T22:35:18.720Z,26.20
2023-04-19T22:37:49.148Z,30.98
2023-04-19T22:40:17.416Z,22.55
2023-04-19T22:42:45.562Z,28.40
2023-04-19T22:45:13.790Z,27.05
2023-04-19T22:47:41.986Z,23.65
2023-04-19T22:50:11.447Z,25.88
2023-04-19T22:52:40.932Z,24.80
2023-04-19T22:55:11.425Z,24.65
2023-04-19T22:57:39.642Z,24.02
2023-04-19T23:00:10.684Z,24.67
2023-04-19T23:02:39.238Z,22.65
2023-04-19T23:05:08.558Z,26.35
2023-04-19T23:07:36.976Z,27.88
2023-04-19T23:10:05.720Z,22.35
2023-04-19T23:12:35.368Z,22.80
2023-04-19T23:15:04.043Z,21.00
2023-04-19T23:17:32.530Z,23.90
2023-04-19T23:20:00.738Z,24.92
2023-04-19T23:22:29.020Z,21.38
2023-04-19T23:24:57.257Z,24.10
2023-04-19T23:27:25.672Z,24.80
2023-04-19T23:29:55.346Z,21.60
2023-04-19T23:32:23.595Z,23.45
2023-04-19T23:34:52.049Z,21.73
2023-04-19T23:37:20.443Z,22.90
2023-04-19T23:39:48.606Z,19.73
2023-04-19T23:42:16.862Z,19.67
2023-04-19T23:44:45.154Z,23.73
2023-04-19T23:47:14.751Z,20.02
2023-04-19T23:49:43.120Z,21.25
2023-04-19T23:52:11.506Z,22.88
2023-04-19T23:54:39.722Z,19.67
2023-04-19T23:57:07.900Z,18.85
2023-04-19T23:59:36.532Z,21.05
